sensor_id;sensor_type;location;lat;lon;timestamp;temperature;humidity
3923;DHT22;1976;51.694;6.256;2022-09-09T17:00:23;16.40;99.90
3923;DHT22;1976;51.694;6.256;2022-09-09T17:02:49;16.30;99.90
3923;DHT22;1976;51.694;6.256;2022-09-09T17:05:14;16.10;99.90
3923;DHT22;1976;51.694;6.256;2022-09-09T17:07:40;16.00;99.90
3923;DHT22;1976;51.694;6.256;2022-09-09T17:10:06;16.00;99.90
3923;DHT22;1976;51.694;6.256;2022-09-09T17:12:32;16.00;99.90
3923;DHT22;1976;51.694;6.256;2022-09-09T17:14:58;15.90;99.90
3923;DHT22;1976;51.694;6.256;2022-09-09T17:17:26;15.80;99.90
3923;DHT22;1976;51.694;6.256;2022-09-09T17:19:52;15.80;99.90
3923;DHT22;1976;51.694;6.256;2022-09-09T17:22:18;15.80;99.90
3923;DHT22;1976;51.694;6.256;2022-09-09T17:24:45;15.90;99.90
3923;DHT22;1976;51.694;6.256;2022-09-09T17:27:12;15.90;99.90
3923;DHT22;1976;51.694;6.256;2022-09-09T17:29:38;15.80;99.90
3923;DHT22;1976;51.694;6.256;2022-09-09T17:32:05;15.90;99.90
3923;DHT22;1976;51.694;6.256;2022-09-09T17:34:30;16.00;99.90
3923;DHT22;1976;51.694;6.256;2022-09-09T17:36:56;16.00;99.90
3923;DHT22;1976;51.694;6.256;2022-09-09T17:39:22;16.00;99.90
3923;DHT22;1976;51.694;6.256;2022-09-09T17:41:48;16.10;99.90
3923;DHT22;1976;51.694;6.256;2022-09-09T17:44:14;16.00;99.90
3923;DHT22;1976;51.694;6.256;2022-09-09T17:46:42;16.10;99.90
3923;DHT22;1976;51.694;6.256;2022-09-09T17:49:11;16.10;99.90
3923;DHT22;1976;51.694;6.256;2022-09-09T17:51:41;16.00;99.90
3923;DHT22;1976;51.694;6.256;2022-09-09T17:54:09;16.00;99.90
3923;DHT22;1976;51.694;6.256;2022-09-09T17:56:36;16.00;99.90
3923;DHT22;1976;51.694;6.256;2022-09-09T17:59:04;16.00;99.90
3923;DHT22;1976;51.694;6.256;2022-09-09T18:01:33;16.10;99.90
3923;DHT22;1976;51.694;6.256;2022-09-09T18:04:02;16.10;99.90
3923;DHT22;1976;51.694;6.256;2022-09-09T18:06:32;16.20;99.90
3923;DHT22;1976;51.694;6.256;2022-09-09T18:09:01;16.20;99.90
3923;DHT22;1976;51.694;6.256;2022-09-09T18:11:30;16.10;99.90
3923;DHT22;1976;51.694;6.256;2022-09-09T18:13:59;16.00;99.90
3923;DHT22;1976;51.694;6.256;2022-09-09T18:16:29;15.80;99.90
3923;DHT22;1976;51.694;6.256;2022-09-09T18:18:56;15.80;99.90
3923;DHT22;1976;51.694;6.256;2022-09-09T18:21:29;15.60;99.90
3923;DHT22;1976;51.694;6.256;2022-09-09T18:23:59;15.60;99.90
3923;DHT22;1976;51.694;6.256;2022-09-09T18:26:26;15.50;99.90
3923;DHT22;1976;51.694;6.256;2022-09-09T18:28:55;15.50;99.90
3923;DHT22;1976;51.694;6.256;2022-09-09T18:31:23;15.40;99.90
3923;DHT22;1976;51.694;6.256;2022-09-09T18:33:49;15.30;99.90
3923;DHT22;1976;51.694;6.256;2022-09-09T18:36:51;15.30;99.90
3923;DHT22;1976;51.694;6.256;2022-09-09T18:39:10;15.20;99.90
3923;DHT22;1976;51.694;6.256;2022-09-09T18:41:39;15.20;99.90
3923;DHT22;1976;51.694;6.256;2022-09-09T18:44:14;15.20;99.90
3923;DHT22;1976;51.694;6.256;2022-09-09T18:46:42;15.30;99.90
3923;DHT22;1976;51.694;6.256;2022-09-09T18:49:08;15.30;99.90
3923;DHT22;1976;51.694;6.256;2022-09-09T18:51:36;15.30;99.90
3923;DHT22;1976;51.694;6.256;2022-09-09T18:54:07;15.30;99.90
3923;DHT22;1976;51.694;6.256;2022-09-09T18:56:35;15.30;99.90
3923;DHT22;1976;51.694;6.256;2022-09-09T18:59:03;15.30;99.90
3923;DHT22;1976;51.694;6.256;2022-09-09T19:01:29;15.30;99.90
3923;DHT22;1976;51.694;6.256;2022-09-09T19:03:56;15.40;99.90
3923;DHT22;1976;51.694;6.256;2022-09-09T19:06:27;15.40;99.90
3923;DHT22;1976;51.694;6.256;2022-09-09T19:08:56;15.40;99.90
3923;DHT22;1976;51.694;6.256;2022-09-09T19:11:23;15.50;99.90
3923;DHT22;1976;51.694;6.256;2022-09-09T19:13:55;15.50;99.90
3923;DHT22;1976;51.694;6.256;2022-09-09T19:16:22;15.40;99.90
3923;DHT22;1976;51.694;6.256;2022-09-09T19:18:49;15.40;99.90
3923;DHT22;1976;51.694;6.256;2022-09-09T19:21:28;15.40;99.90
3923;DHT22;1976;51.694;6.256;2022-09-09T19:23:58;15.40;99.90
3923;DHT22;1976;51.694;6.256;2022-09-09T19:26:26;15.40;99.90
3923;DHT22;1976;51.694;6.256;2022-09-09T19:28:52;15.40;99.90
3923;DHT22;1976;51.694;6.256;2022-09-09T19:31:19;15.40;99.90
3923;DHT22;1976;51.694;6.256;2022-09-09T19:33:46;15.40;99.90
3923;DHT22;1976;51.694;6.256;2022-09-09T19:36:14;15.40;99.90
3923;DHT22;1976;51.694;6.256;2022-09-09T19:38:41;15.40;99.90
3923;DHT22;1976;51.694;6.256;2022-09-09T19:41:12;15.40;99.90
3923;DHT22;1976;51.694;6.256;2022-09-09T19:43:39;15.40;99.90
3923;DHT22;1976;51.694;6.256;2022-09-09T19:46:07;15.40;99.90
3923;DHT22;1976;51.694;6.256;2022-09-09T19:48:35;15.30;99.90
3923;DHT22;1976;51.694;6.256;2022-09-09T19:51:21;15.30;99.90
3923;DHT22;1976;51.694;6.256;2022-09-09T19:53:52;15.40;99.90
3923;DHT22;1976;51.694;6.256;2022-09-09T19:56:21;15.30;99.90
3923;DHT22;1976;51.694;6.256;2022-09-09T19:58:51;15.40;99.90
3923;DHT22;1976;51.694;6.256;2022-09-09T20:01:21;15.30;99.90
3923;DHT22;1976;51.694;6.256;2022-09-09T20:03:48;15.30;99.90
3923;DHT22;1976;51.694;6.256;2022-09-09T20:06:16;15.30;99.90
3923;DHT22;1976;51.694;6.256;2022-09-09T20:08:43;15.30;99.90
3923;DHT22;1976;51.694;6.256;2022-09-09T20:11:10;15.30;99.90
3923;DHT22;1976;51.694;6.256;2022-09-09T20:13:37;15.30;99.90
3923;DHT22;1976;51.694;6.256;2022-09-09T20:16:06;15.40;99.90
3923;DHT22;1976;51.694;6.256;2022-09-09T20:18:35;15.40;99.90
3923;DHT22;1976;51.694;6.256;2022-09-09T20:21:04;15.40;99.90
3923;DHT22;1976;51.694;6.256;2022-09-09T20:23:30;15.50;99.90
3923;DHT22;1976;51.694;6.256;2022-09-09T20:26:00;15.40;99.90
3923;DHT22;1976;51.694;6.256;2022-09-09T20:28:27;15.40;99.90
3923;DHT22;1976;51.694;6.256;2022-09-09T20:30:54;15.50;99.90
3923;DHT22;1976;51.694;6.256;2022-09-09T20:33:19;15.60;99.90
3923;DHT22;1976;51.694;6.256;2022-09-09T20:35:46;15.50;99.90
3923;DHT22;1976;51.694;6.256;2022-09-09T20:38:12;15.60;99.90
3923;DHT22;1976;51.694;6.256;2022-09-09T20:40:39;15.60;99.90
3923;DHT22;1976;51.694;6.256;2022-09-09T20:43:06;15.60;99.90
3923;DHT22;1976;51.694;6.256;2022-09-09T20:45:35;15.70;99.90
3923;DHT22;1976;51.694;6.256;2022-09-09T20:48:03;15.70;99.90
3923;DHT22;1976;51.694;6.256;2022-09-09T20:50:29;15.70;99.90
3923;DHT22;1976;51.694;6.256;2022-09-09T20:52:55;15.70;99.90
3923;DHT22;1976;51.694;6.256;2022-09-09T20:55:20;15.70;99.90
3923;DHT22;1976;51.694;6.256;2022-09-09T20:57:46;15.80;99.90
3923;DHT22;1976;51.694;6.256;2022-09-09T21:00:12;15.80;99.90
3923;DHT22;1976;51.694;6.256;2022-09-09T21:02:39;15.70;99.90
3923;DHT22;1976;51.694;6.256;2022-09-09T21:05:05;15.70;99.90
3923;DHT22;1976;51.694;6.256;2022-09-09T21:07:31;15.60;99.90
3923;DHT22;1976;51.694;6.256;2022-09-09T21:09:57;15.60;99.90
3923;DHT22;1976;51.694;6.256;2022-09-09T21:12:23;15.50;99.90
3923;DHT22;1976;51.694;6.256;2022-09-09T21:14:49;15.50;99.90
3923;DHT22;1976;51.694;6.256;2022-09-09T21:17:16;15.50;99.90
3923;DHT22;1976;51.694;6.256;2022-09-09T21:19:44;15.40;99.90
3923;DHT22;1976;51.694;6.256;2022-09-09T21:22:10;15.40;99.90
3923;DHT22;1976;51.694;6.256;2022-09-09T21:24:36;15.40;99.90
3923;DHT22;1976;51.694;6.256;2022-09-09T21:27:02;15.40;99.90
3923;DHT22;1976;51.694;6.256;2022-09-09T21:29:28;15.40;99.90
3923;DHT22;1976;51.694;6.256;2022-09-09T21:31:54;15.40;99.90
3923;DHT22;1976;51.694;6.256;2022-09-09T21:34:20;15.40;99.90
3923;DHT22;1976;51.694;6.256;2022-09-09T21:36:46;15.40;99.90
3923;DHT22;1976;51.694;6.256;2022-09-09T21:39:11;15.40;99.90
3923;DHT22;1976;51.694;6.256;2022-09-09T21:41:37;15.40;99.90
3923;DHT22;1976;51.694;6.256;2022-09-09T21:46:29;15.30;99.90
3923;DHT22;1976;51.694;6.256;2022-09-09T21:48:54;15.30;99.90
3923;DHT22;1976;51.694;6.256;2022-09-09T21:51:21;15.40;99.90
3923;DHT22;1976;51.694;6.256;2022-09-09T21:53:46;15.30;99.90
3923;DHT22;1976;51.694;6.256;2022-09-09T21:56:14;15.30;99.90
3923;DHT22;1976;51.694;6.256;2022-09-09T21:58:41;15.30;99.90
3923;DHT22;1976;51.694;6.256;2022-09-09T22:01:08;15.30;99.90
3923;DHT22;1976;51.694;6.256;2022-09-09T22:03:36;15.30;99.90
3923;DHT22;1976;51.694;6.256;2022-09-09T22:06:05;15.30;99.90
3923;DHT22;1976;51.694;6.256;2022-09-09T22:08:31;15.40;99.90
3923;DHT22;1976;51.694;6.256;2022-09-09T22:10:56;15.40;99.90
3923;DHT22;1976;51.694;6.256;2022-09-09T22:13:22;15.40;99.90
3923;DHT22;1976;51.694;6.256;2022-09-09T22:15:47;15.40;99.90
3923;DHT22;1976;51.694;6.256;2022-09-09T22:18:13;15.40;99.90
3923;DHT22;1976;51.694;6.256;2022-09-09T22:20:44;15.50;99.90
3923;DHT22;1976;51.694;6.256;2022-09-09T22:23:11;15.40;99.90
3923;DHT22;1976;51.694;6.256;2022-09-09T22:25:37;15.40;99.90
3923;DHT22;1976;51.694;6.256;2022-09-09T22:28:05;15.40;99.90
3923;DHT22;1976;51.694;6.256;2022-09-09T22:30:31;15.40;99.90
3923;DHT22;1976;51.694;6.256;2022-09-09T22:32:56;15.40;99.90
3923;DHT22;1976;51.694;6.256;2022-09-09T22:35:22;15.40;99.90
3923;DHT22;1976;51.694;6.256;2022-09-09T22:37:48;15.40;99.90
3923;DHT22;1976;51.694;6.256;2022-09-09T22:40:14;15.50;99.90
3923;DHT22;1976;51.694;6.256;2022-09-09T22:42:42;15.50;99.90
3923;DHT22;1976;51.694;6.256;2022-09-09T22:45:09;15.40;99.90
3923;DHT22;1976;51.694;6.256;2022-09-09T22:47:35;15.50;99.90
3923;DHT22;1976;51.694;6.256;2022-09-09T22:50:01;15.50;99.90
3923;DHT22;1976;51.694;6.256;2022-09-09T22:52:27;15.50;99.90
3923;DHT22;1976;51.694;6.256;2022-09-09T22:54:53;15.50;99.90
3923;DHT22;1976;51.694;6.256;2022-09-09T22:57:19;15.60;99.90
3923;DHT22;1976;51.694;6.256;2022-09-09T22:59:45;15.60;99.90
3923;DHT22;1976;51.694;6.256;2022-09-09T23:02:11;15.60;99.90
3923;DHT22;1976;51.694;6.256;2022-09-09T23:04:37;15.70;99.90
3923;DHT22;1976;51.694;6.256;2022-09-09T23:07:03;15.70;99.90
3923;DHT22;1976;51.694;6.256;2022-09-09T23:09:32;15.70;99.90
3923;DHT22;1976;51.694;6.256;2022-09-09T23:11:57;15.70;99.90
3923;DHT22;1976;51.694;6.256;2022-09-09T23:14:23;15.70;99.90
3923;DHT22;1976;51.694;6.256;2022-09-09T23:16:49;15.70;99.90
3923;DHT22;1976;51.694;6.256;2022-09-09T23:19:17;15.70;99.90
3923;DHT22;1976;51.694;6.256;2022-09-09T23:21:44;15.70;99.90
3923;DHT22;1976;51.694;6.256;2022-09-09T23:24:14;15.70;99.90
3923;DHT22;1976;51.694;6.256;2022-09-09T23:26:41;15.60;99.90
3923;DHT22;1976;51.694;6.256;2022-09-09T23:29:09;15.60;99.90
3923;DHT22;1976;51.694;6.256;2022-09-09T23:31:40;15.60;99.90
3923;DHT22;1976;51.694;6.256;2022-09-09T23:34:06;15.60;99.90
3923;DHT22;1976;51.694;6.256;2022-09-09T23:36:32;15.60;99.90
3923;DHT22;1976;51.694;6.256;2022-09-09T23:39:00;15.50;99.90
3923;DHT22;1976;51.694;6.256;2022-09-09T23:41:27;15.50;99.90
3923;DHT22;1976;51.694;6.256;2022-09-09T23:43:53;15.50;99.90
3923;DHT22;1976;51.694;6.256;2022-09-09T23:46:22;15.50;99.90
3923;DHT22;1976;51.694;6.256;2022-09-09T23:48:48;15.50;99.90
3923;DHT22;1976;51.694;6.256;2022-09-09T23:51:19;15.50;99.90
3923;DHT22;1976;51.694;6.256;2022-09-09T23:53:48;15.60;99.90
3923;DHT22;1976;51.694;6.256;2022-09-09T23:56:19;15.60;99.90
3923;DHT22;1976;51.694;6.256;2022-09-09T23:58:48;15.60;99.90
